Time;durP1;ratioP1;P1;durP2;ratioP2;P2;SDS_P1;SDS_P2;PMS_P1;PMS_P2;Temp;Humidity;BMP_temperature;BMP_pressure;BME280_temperature;BME280_humidity;BME280_pressure;Samples;Min_cycle;Max_cycle;Signal;HPM_P1;HPM_P2
2024/03/20 00:01:55;;;;;;;;;;;;;;;19.94;55.72;101202.19;7392686;19;1008;-35
2024/03/20 00:04:24;;;;;;;;;;;;;;;19.97;55.39;101207.28;7391929;19;1506;-36
2024/03/20 00:06:52;;;;;;;;;;;;;;;19.94;55.59;101204.88;7392175;19;1618;-36
2024/03/20 00:09:22;;;;;;;;;;;;;;;19.97;55.59;101207.28;7391488;19;1533;-36
2024/03/20 00:11:53;;;;;;;;;;;;;;;20.00;55.38;101199.81;7392255;19;1606;-35
2024/03/20 00:14:21;;;;;;;;;;;;;;;20.00;55.49;101201.66;7391749;19;1552;-36
2024/03/20 00:16:52;;;;;;;;;;;;;;;19.98;55.52;101201.78;7391172;19;1544;-36
2024/03/20 00:19:21;;;;;;;;;;;;;;;19.94;55.61;101207.56;7391179;19;1753;-36
2024/03/20 00:21:49;;;;;;;;;;;;;;;19.91;55.71;101199.75;7392417;19;1606;-35
2024/03/20 00:24:18;;;;;;;;;;;;;;;19.97;55.53;101202.75;7378016;19;1346;-36
2024/03/20 00:26:46;;;;;;;;;;;;;;;19.93;55.48;101198.63;7392545;19;1239;-36
2024/03/20 00:29:17;;;;;;;;;;;;;;;19.98;55.39;101195.56;7392665;19;1858;-36
2024/03/20 00:31:46;;;;;;;;;;;;;;;19.91;55.56;101195.22;7392054;19;1694;-36
2024/03/20 00:34:17;;;;;;;;;;;;;;;19.98;55.40;101198.25;7392180;19;1501;-36
2024/03/20 00:36:45;;;;;;;;;;;;;;;19.94;55.70;101200.34;7389475;19;1845;-35
2024/03/20 00:39:14;;;;;;;;;;;;;;;19.97;55.38;101209.97;7392296;19;1525;-35
2024/03/20 00:41:43;;;;;;;;;;;;;;;19.92;55.55;101202.31;7392152;19;1030;-35
2024/03/20 00:44:11;;;;;;;;;;;;;;;19.89;55.73;101199.88;7389476;19;1579;-35
2024/03/20 00:46:43;;;;;;;;;;;;;;;19.88;55.69;101198.19;7388176;19;1188;-36
2024/03/20 00:49:11;;;;;;;;;;;;;;;19.99;55.31;101198.09;7388494;19;1546;-36
2024/03/20 00:51:40;;;;;;;;;;;;;;;19.97;55.39;101199.22;7388352;19;1610;-36
2024/03/20 00:54:08;;;;;;;;;;;;;;;19.96;55.49;101198.38;7388706;19;1420;-36
2024/03/20 00:56:37;;;;;;;;;;;;;;;19.92;55.51;101199.63;7387262;19;1851;-35
2024/03/20 00:59:05;;;;;;;;;;;;;;;19.97;55.65;101207.28;7388651;19;1754;-35
2024/03/20 01:01:33;;;;;;;;;;;;;;;19.94;55.57;101194.13;7388932;19;1454;-35
2024/03/20 01:04:05;;;;;;;;;;;;;;;19.93;55.38;101190.56;7388763;19;1532;-36
2024/03/20 01:06:33;;;;;;;;;;;;;;;19.92;55.62;101204.16;7388379;19;1655;-35
2024/03/20 01:09:03;;;;;;;;;;;;;;;19.96;55.56;101205.59;7388291;19;1437;-35
2024/03/20 01:11:31;;;;;;;;;;;;;;;19.92;55.56;101193.41;7388918;19;1398;-35
2024/03/20 01:13:59;;;;;;;;;;;;;;;19.97;55.38;101212.63;7387196;19;1497;-35
2024/03/20 01:16:29;;;;;;;;;;;;;;;19.96;55.47;101210.97;7386201;19;1832;-35
2024/03/20 01:18:57;;;;;;;;;;;;;;;19.97;55.37;101215.31;7387685;19;1525;-35
2024/03/20 01:21:28;;;;;;;;;;;;;;;19.95;55.35;101209.25;7388413;19;1494;-35
2024/03/20 01:23:57;;;;;;;;;;;;;;;19.94;55.62;101208.41;7373971;19;1110;-36
2024/03/20 01:26:25;;;;;;;;;;;;;;;19.98;55.32;101203.63;7388156;19;1074;-35
2024/03/20 01:28:54;;;;;;;;;;;;;;;19.96;55.35;101195.69;7388463;19;1563;-35
2024/03/20 01:31:23;;;;;;;;;;;;;;;19.96;55.45;101190.31;7387811;19;1517;-36
2024/03/20 01:33:51;;;;;;;;;;;;;;;19.97;55.49;101193.84;7387616;19;1471;-35
2024/03/20 01:36:20;;;;;;;;;;;;;;;20.00;55.31;101201.66;7387354;19;1839;-36
2024/03/20 01:38:51;;;;;;;;;;;;;;;19.98;55.37;101191.03;7385232;19;1712;-35
2024/03/20 01:41:19;;;;;;;;;;;;;;;20.00;55.30;101198.97;7387490;19;1140;-35
2024/03/20 01:43:54;;;;;;;;;;;;;;;19.96;55.48;101209.13;7385542;19;1445;-35
2024/03/20 01:46:32;;;;;;;;;;;;;;;19.93;55.44;101205.84;7387433;19;1548;-35
2024/03/20 01:49:00;;;;;;;;;;;;;;;19.96;55.60;101205.59;7387107;19;1544;-35
2024/03/20 01:51:29;;;;;;;;;;;;;;;19.93;55.66;101204.00;7386658;19;1489;-35
2024/03/20 01:54:01;;;;;;;;;;;;;;;19.94;55.57;101203.03;7387791;19;1175;-35
2024/03/20 01:56:30;;;;;;;;;;;;;;;19.97;55.41;101229.59;7386126;19;1888;-35
2024/03/20 01:58:59;;;;;;;;;;;;;;;19.91;55.51;101197.06;7386365;19;1428;-35
2024/03/20 02:01:27;;;;;;;;;;;;;;;20.02;55.37;101210.44;7386653;19;1104;-35
2024/03/20 02:03:57;;;;;;;;;;;;;;;20.24;54.84;101196.84;7386774;19;1551;-35
2024/03/20 02:06:27;;;;;;;;;;;;;;;20.55;54.25;101193.31;7386766;19;1638;-35
2024/03/20 02:08:57;;;;;;;;;;;;;;;20.78;53.60;101191.31;7386021;19;1434;-35
2024/03/20 02:11:29;;;;;;;;;;;;;;;20.85;53.46;101200.53;7386686;19;1656;-35
2024/03/20 02:13:58;;;;;;;;;;;;;;;20.86;53.55;101202.22;7386061;19;1559;-35
2024/03/20 02:16:27;;;;;;;;;;;;;;;20.97;53.47;101210.19;7382755;19;2434;-36
2024/03/20 02:18:56;;;;;;;;;;;;;;;20.84;53.60;101188.06;7385923;19;1618;-36
2024/03/20 02:21:27;;;;;;;;;;;;;;;20.23;54.83;101208.59;7386282;19;1502;-35
2024/03/20 02:23:55;;;;;;;;;;;;;;;19.86;55.55;101206.34;7373036;19;1111;-35
2024/03/20 02:26:24;;;;;;;;;;;;;;;19.56;56.09;101209.78;7386378;19;1866;-35
2024/03/20 02:28:53;;;;;;;;;;;;;;;19.46;56.50;101209.69;7385686;19;1393;-35
2024/03/20 02:31:21;;;;;;;;;;;;;;;19.42;56.45;101202.88;7386173;19;1240;-35
2024/03/20 02:33:50;;;;;;;;;;;;;;;20.04;55.55;101216.50;7387233;19;1155;-35
2024/03/20 02:36:18;;;;;;;;;;;;;;;20.43;54.48;101203.28;7385449;19;1853;-35
2024/03/20 02:38:49;;;;;;;;;;;;;;;20.74;53.83;101231.03;7385472;19;1485;-35
2024/03/20 02:41:18;;;;;;;;;;;;;;;20.83;53.63;101210.53;7385826;19;1461;-35
2024/03/20 02:43:47;;;;;;;;;;;;;;;20.95;53.58;101214.84;7385379;19;1542;-35
2024/03/20 02:46:15;;;;;;;;;;;;;;;21.02;53.20;101207.91;7385802;19;1488;-35
2024/03/20 02:48:44;;;;;;;;;;;;;;;21.03;53.50;101206.09;7384562;19;1119;-35
2024/03/20 02:51:12;;;;;;;;;;;;;;;20.97;53.44;101207.50;7385670;19;1404;-35
2024/03/20 02:53:41;;;;;;;;;;;;;;;20.58;54.46;101211.84;7387311;19;1160;-35
2024/03/20 02:56:12;;;;;;;;;;;;;;;20.39;55.01;101212.59;7391224;19;1851;-35
2024/03/20 02:58:40;;;;;;;;;;;;;;;20.43;54.89;101216.72;7391544;19;1502;-35
2024/03/20 03:01:09;;;;;;;;;;;;;;;20.44;54.80;101218.44;7392105;19;1159;-37
2024/03/20 03:03:37;;;;;;;;;;;;;;;20.44;54.79;101213.91;7391663;19;1338;-35
2024/03/20 03:06:06;;;;;;;;;;;;;;;20.53;54.59;101214.94;7392500;19;1453;-35
2024/03/20 03:08:34;;;;;;;;;;;;;;;20.46;54.83;101221.84;7391640;19;1489;-36
2024/03/20 03:11:03;;;;;;;;;;;;;;;20.42;54.72;101226.63;7392663;19;1607;-35
2024/03/20 03:13:34;;;;;;;;;;;;;;;20.43;54.99;101228.34;7391792;19;1552;-36
2024/03/20 03:16:04;;;;;;;;;;;;;;;20.45;54.83;101221.00;7391489;19;1840;-35
2024/03/20 03:18:32;;;;;;;;;;;;;;;20.48;54.88;101233.28;7391556;19;1465;-36
2024/03/20 03:21:01;;;;;;;;;;;;;;;20.50;54.72;101233.16;7391649;19;1622;-36
2024/03/20 03:23:29;;;;;;;;;;;;;;;20.45;54.98;101239.81;7378299;19;1843;-36
2024/03/20 03:25:58;;;;;;;;;;;;;;;20.44;55.00;101237.25;7391999;19;1551;-36
2024/03/20 03:28:26;;;;;;;;;;;;;;;20.46;54.91;101238.78;7390437;19;1851;-36
2024/03/20 03:30:57;;;;;;;;;;;;;;;20.52;54.84;101240.09;7392919;19;1176;-36
2024/03/20 03:33:26;;;;;;;;;;;;;;;20.40;54.90;101246.56;7391398;19;1822;-36
2024/03/20 03:35:55;;;;;;;;;;;;;;;20.30;55.38;101257.25;7391525;19;1862;-36
2024/03/20 03:38:23;;;;;;;;;;;;;;;20.54;54.76;101238.13;7392444;19;1521;-35
2024/03/20 03:41:01;;;;;;;;;;;;;;;20.62;54.65;101227.59;7392133;19;1630;-35
2024/03/20 03:43:30;;;;;;;;;;;;;;;20.67;54.58;101246.00;7391491;19;1568;-35
2024/03/20 03:46:01;;;;;;;;;;;;;;;20.63;54.72;101253.50;7390468;19;1436;-36
2024/03/20 03:48:30;;;;;;;;;;;;;;;20.62;54.62;101253.63;7391191;19;1509;-35
2024/03/20 03:50:58;;;;;;;;;;;;;;;20.58;54.58;101244.94;7392699;19;1513;-35
2024/03/20 03:53:26;;;;;;;;;;;;;;;20.65;54.61;101289.16;7392093;19;1099;-36
2024/03/20 03:55:55;;;;;;;;;;;;;;;20.63;54.65;101248.13;7390910;19;1857;-36
2024/03/20 03:58:24;;;;;;;;;;;;;;;20.63;54.41;101252.63;7390948;19;1376;-37
2024/03/20 04:00:52;;;;;;;;;;;;;;;20.39;55.17;101274.38;7390979;19;1511;-36
2024/03/20 04:03:27;;;;;;;;;;;;;;;20.00;56.06;101260.72;7391228;19;1505;-36
2024/03/20 04:05:58;;;;;;;;;;;;;;;19.68;56.74;101259.72;7389492;19;1128;-35
2024/03/20 04:08:26;;;;;;;;;;;;;;;19.53;57.01;101279.75;7390566;19;1435;-37
2024/03/20 04:10:55;;;;;;;;;;;;;;;19.39;56.96;101277.38;7390285;19;1381;-35
2024/03/20 04:13:23;;;;;;;;;;;;;;;19.30;57.11;101262.91;7390289;19;1218;-35
2024/03/20 04:15:52;;;;;;;;;;;;;;;19.30;57.31;101280.78;7390026;19;1875;-36
2024/03/20 04:18:24;;;;;;;;;;;;;;;19.28;57.28;101275.56;7391324;19;1552;-35
2024/03/20 04:20:52;;;;;;;;;;;;;;;19.12;57.46;101289.38;7391208;19;1015;-35
2024/03/20 04:23:21;;;;;;;;;;;;;;;19.08;58.14;101291.44;7375945;19;1442;-36
2024/03/20 04:25:49;;;;;;;;;;;;;;;19.50;57.40;101289.88;7390453;19;1505;-36
2024/03/20 04:28:18;;;;;;;;;;;;;;;19.66;57.06;101295.72;7389924;19;1486;-35
2024/03/20 04:30:46;;;;;;;;;;;;;;;19.69;56.98;101295.44;7390416;19;1131;-35
2024/03/20 04:33:15;;;;;;;;;;;;;;;19.80;56.59;101298.13;7390256;19;1457;-35
2024/03/20 04:35:46;;;;;;;;;;;;;;;19.93;56.51;101302.47;7387980;19;1489;-35
2024/03/20 04:38:15;;;;;;;;;;;;;;;20.02;56.26;101304.38;7385861;19;1904;-35
